Time;durP1;ratioP1;P1;durP2;ratioP2;P2;SDS_P1;SDS_P2;PMS_P1;PMS_P2;Temp;Humidity;BMP_temperature;BMP_pressure;BME280_temperature;BME280_humidity;BME280_pressure;Samples;Min_cycle;Max_cycle;Signal;HPM_P1;HPM_P2
2022/01/04 00:01:10;;;;;;;5.17;2.05;;;;;;;5.59;100.00;98596.12;1662291;84;21035;-71
2022/01/04 00:03:37;;;;;;;4.70;1.87;;;;;;;5.56;100.00;98593.61;1684105;83;21073;-70
2022/01/04 00:06:03;;;;;;;4.47;1.72;;;;;;;5.54;100.00;98597.20;1666308;84;21097;-70
2022/01/04 00:08:30;;;;;;;3.70;1.90;;;;;;;5.51;100.00;98598.18;1662705;86;21114;-70
2022/01/04 00:11:08;;;;;;;2.33;1.27;;;;;;;5.47;100.00;98600.52;1662590;86;22145;-71
2022/01/04 00:13:27;;;;;;;3.85;1.20;;;;;;;5.45;100.00;98601.03;1661421;86;21062;-69
2022/01/04 00:15:54;;;;;;;2.40;1.42;;;;;;;5.44;100.00;98605.87;1662582;86;21122;-71
2022/01/04 00:21:12;;;;;;;1.77;0.78;;;;;;;5.43;100.00;98605.49;1795695;78;29077;-70
2022/01/04 00:23:38;;;;;;;1.82;0.85;;;;;;;5.36;100.00;98618.38;1754802;81;21548;-69
2022/01/04 00:26:06;;;;;;;1.98;0.80;;;;;;;5.34;100.00;98607.17;1755519;81;21421;-70
2022/01/04 00:28:34;;;;;;;1.72;0.90;;;;;;;5.33;100.00;98609.36;1754053;81;21041;-69
2022/01/04 00:31:01;;;;;;;1.12;0.60;;;;;;;5.29;100.00;98612.58;1755367;81;21037;-69
2022/01/04 00:33:29;;;;;;;1.47;0.88;;;;;;;5.26;100.00;98617.89;1755689;81;21035;-72
2022/01/04 00:35:56;;;;;;;2.20;1.00;;;;;;;5.22;100.00;98628.92;1756092;81;21515;-72
2022/01/04 00:38:23;;;;;;;1.10;0.90;;;;;;;5.23;100.00;98626.70;1752197;81;21516;-72
2022/01/04 00:40:49;;;;;;;3.72;1.10;;;;;;;5.21;100.00;98628.52;1758433;81;21043;-72
2022/01/04 00:43:16;;;;;;;2.25;1.10;;;;;;;5.18;100.00;98631.25;1756936;81;21446;-70
2022/01/04 00:45:42;;;;;;;2.20;1.20;;;;;;;5.17;100.00;98628.69;1750903;81;21065;-71
2022/01/04 00:50:40;;;;;;;1.95;1.12;;;;;;;5.14;100.00;98633.58;1685878;85;21178;-70
2022/01/04 00:53:07;;;;;;;1.50;0.80;;;;;;;5.11;100.00;98632.41;1688380;85;21400;-69
2022/01/04 00:55:34;;;;;;;0.93;0.80;;;;;;;5.12;100.00;98641.92;1709773;84;20981;-70
2022/01/04 00:58:01;;;;;;;1.00;0.70;;;;;;;5.11;100.00;98643.27;1699792;84;21045;-71
2022/01/04 01:00:29;;;;;;;1.70;1.20;;;;;;;5.11;100.00;98638.92;1679431;83;21089;-70
2022/01/04 01:02:56;;;;;;;3.58;1.10;;;;;;;5.11;100.00;98642.84;1697657;84;21612;-72
2022/01/04 01:05:24;;;;;;;1.62;0.90;;;;;;;5.10;100.00;98643.73;1680054;84;21123;-72
2022/01/04 01:07:54;;;;;;;1.98;1.00;;;;;;;5.09;100.00;98633.38;1687424;84;21125;-72
2022/01/04 01:10:44;;;;;;;2.62;1.27;;;;;;;5.09;100.00;98626.39;1705416;84;21009;-70
2022/01/04 01:13:11;;;;;;;3.83;1.87;;;;;;;5.10;100.00;98630.69;1697176;84;21666;-71
2022/01/04 01:15:41;;;;;;;2.45;1.50;;;;;;;5.08;100.00;98636.41;1695457;84;21083;-71
2022/01/04 01:18:08;;;;;;;2.58;1.80;;;;;;;5.03;100.00;98637.05;1685027;84;21045;-72
2022/01/04 01:20:38;;;;;;;5.45;2.40;;;;;;;5.02;100.00;98639.28;1670417;84;21579;-73
2022/01/04 01:23:05;;;;;;;4.42;2.20;;;;;;;5.00;100.00;98642.40;1679407;84;21133;-72
2022/01/04 01:25:32;;;;;;;3.40;2.08;;;;;;;4.97;100.00;98640.77;1692652;84;21148;-73
2022/01/04 01:27:59;;;;;;;5.08;2.08;;;;;;;4.97;100.00;98641.19;1721170;82;21512;-70
2022/01/04 01:30:27;;;;;;;3.75;2.10;;;;;;;4.95;100.00;98641.73;1712530;83;21136;-72
2022/01/04 01:32:53;;;;;;;4.50;2.20;;;;;;;4.90;100.00;98635.81;1711834;82;21286;-72
2022/01/04 01:35:20;;;;;;;3.62;2.33;;;;;;;4.84;100.00;98632.53;1711897;83;21049;-71
2022/01/04 01:37:48;;;;;;;3.45;2.12;;;;;;;4.79;100.00;98638.39;1721530;82;21537;-73
2022/01/04 01:40:15;;;;;;;3.65;2.17;;;;;;;4.73;100.00;98637.30;1741491;82;21096;-71
2022/01/04 01:42:42;;;;;;;4.25;2.47;;;;;;;4.68;100.00;98634.02;1732257;82;21045;-71
2022/01/04 01:45:11;;;;;;;7.55;2.45;;;;;;;4.66;100.00;98636.29;1712115;83;21041;-71
2022/01/04 01:47:41;;;;;;;6.28;2.22;;;;;;;4.63;100.00;98638.56;1711883;82;21085;-70
2022/01/04 01:50:09;;;;;;;7.08;2.27;;;;;;;4.59;100.00;98638.27;1711938;83;21100;-71
2022/01/04 01:52:38;;;;;;;3.45;1.98;;;;;;;4.58;100.00;98636.13;1720163;82;21070;-71
2022/01/04 01:55:07;;;;;;;5.65;2.22;;;;;;;4.58;100.00;98647.85;1738521;82;21863;-71
2022/01/04 01:57:36;;;;;;;5.15;2.30;;;;;;;4.56;100.00;98649.66;1737678;82;21521;-68
2022/01/04 02:00:07;;;;;;;4.00;2.20;;;;;;;4.56;100.00;98650.13;1745237;82;20963;-71
2022/01/04 02:02:34;;;;;;;2.62;1.82;;;;;;;4.58;100.00;98657.44;1742296;82;21037;-71
2022/01/04 02:05:00;;;;;;;3.83;2.15;;;;;;;4.58;100.00;98652.22;1741865;82;21122;-70
2022/01/04 02:07:27;;;;;;;3.52;1.92;;;;;;;4.61;100.00;98650.80;1736198;82;21058;-71
2022/01/04 02:10:04;;;;;;;4.95;2.55;;;;;;;4.62;100.00;98657.70;1724564;82;21157;-70
2022/01/04 02:12:22;;;;;;;5.40;2.35;;;;;;;4.62;100.00;98652.48;1722717;82;20994;-70
2022/01/04 02:14:50;;;;;;;4.78;2.00;;;;;;;4.62;100.00;98655.09;1712342;83;21108;-71
2022/01/04 02:17:17;;;;;;;6.65;2.08;;;;;;;4.63;100.00;98659.42;1715305;82;21516;-70
2022/01/04 02:19:44;;;;;;;4.72;2.50;;;;;;;4.64;100.00;98659.80;1738801;82;21054;-71
2022/01/04 02:22:11;;;;;;;4.53;2.22;;;;;;;4.66;100.00;98655.38;1728695;82;21611;-72
2022/01/04 02:24:38;;;;;;;4.47;2.02;;;;;;;4.67;100.00;98668.84;1708162;82;21049;-71
2022/01/04 02:27:05;;;;;;;4.00;1.75;;;;;;;4.70;100.00;98666.11;1710560;82;21155;-71
2022/01/04 02:29:32;;;;;;;4.83;1.87;;;;;;;4.72;100.00;98660.84;1704571;84;21143;-69
2022/01/04 02:31:59;;;;;;;3.83;1.70;;;;;;;4.70;100.00;98654.38;1706360;82;21081;-71
2022/01/04 02:34:25;;;;;;;5.03;2.27;;;;;;;4.71;100.00;98657.36;1669153;86;21094;-70
2022/01/04 02:36:52;;;;;;;5.58;2.10;;;;;;;4.72;100.00;98659.09;1732310;82;21054;-70
2022/01/04 02:39:18;;;;;;;4.70;1.75;;;;;;;4.73;100.00;98659.47;1734724;82;21007;-71
2022/01/04 02:41:44;;;;;;;3.50;2.02;;;;;;;4.74;100.00;98661.61;1672099;85;21207;-71
2022/01/04 02:44:11;;;;;;;4.90;1.90;;;;;;;4.74;100.00;98662.48;1669550;85;21235;-71
2022/01/04 02:46:38;;;;;;;4.45;1.75;;;;;;;4.73;100.00;98664.68;1734289;82;21082;-70
2022/01/04 02:49:04;;;;;;;4.47;1.80;;;;;;;4.75;100.00;98666.78;1635979;85;21611;-70
2022/01/04 02:51:31;;;;;;;3.10;1.57;;;;;;;4.75;100.00;98675.07;1691772;84;21097;-70
2022/01/04 02:53:57;;;;;;;5.85;2.00;;;;;;;4.75;100.00;98672.00;1694723;82;22048;-69
2022/01/04 02:56:24;;;;;;;2.40;1.70;;;;;;;4.76;100.00;98672.41;1692947;84;21141;-70
2022/01/04 02:58:50;;;;;;;5.85;1.80;;;;;;;4.75;100.00;98661.57;1712341;82;21051;-70
2022/01/04 03:01:16;;;;;;;3.77;1.67;;;;;;;4.75;100.00;98664.17;1724106;82;21035;-70
2022/01/04 03:03:43;;;;;;;2.67;1.47;;;;;;;4.78;100.00;98667.97;1721898;82;21067;-70
2022/01/04 03:06:14;;;;;;;3.33;1.60;;;;;;;4.79;100.00;98663.16;1719659;82;21563;-70
2022/01/04 03:08:40;;;;;;;5.62;1.65;;;;;;;4.81;100.00;98665.27;1707785;82;21060;-67
2022/01/04 03:11:08;;;;;;;2.75;1.50;;;;;;;4.82;100.00;98665.65;1704596;83;21105;-68
2022/01/04 03:13:35;;;;;;;4.15;1.52;;;;;;;4.84;100.00;98663.84;1725617;82;21035;-67
2022/01/04 03:16:03;;;;;;;4.05;1.52;;;;;;;4.84;100.00;98674.27;1668755;86;21121;-68
2022/01/04 03:18:31;;;;;;;3.22;1.52;;;;;;;4.86;100.00;98674.69;1664186;85;22010;-68
2022/01/04 03:20:57;;;;;;;4.87;2.05;;;;;;;4.86;100.00;98670.77;1739026;81;21053;-68
2022/01/04 03:23:24;;;;;;;4.50;1.70;;;;;;;4.87;100.00;98672.45;1735717;82;21033;-68
2022/01/04 03:25:51;;;;;;;2.62;1.55;;;;;;;4.88;100.00;98678.06;1738878;82;21112;-67
2022/01/04 03:28:20;;;;;;;4.10;1.60;;;;;;;4.87;100.00;98684.20;1722280;82;21066;-68
2022/01/04 03:30:47;;;;;;;2.72;1.80;;;;;;;4.84;100.00;98683.40;1731705;82;21102;-68
2022/01/04 03:33:15;;;;;;;3.47;1.70;;;;;;;4.82;100.00;98687.82;1717312;82;21591;-68
2022/01/04 03:35:43;;;;;;;3.08;1.42;;;;;;;4.82;100.00;98686.98;1665747;86;21102;-67
2022/01/04 03:38:09;;;;;;;4.15;1.40;;;;;;;4.82;100.00;98689.13;1718353;82;21098;-68
2022/01/04 03:40:36;;;;;;;2.58;1.70;;;;;;;4.86;100.00;98691.64;1731667;82;21106;-68
2022/01/04 03:43:02;;;;;;;4.20;1.45;;;;;;;4.86;100.00;98691.64;1733800;82;21190;-68
2022/01/04 03:45:29;;;;;;;6.33;1.50;;;;;;;4.86;100.00;98699.01;1737140;82;21180;-67
2022/01/04 03:47:56;;;;;;;4.87;1.80;;;;;;;4.87;100.00;98706.37;1664333;86;21122;-66
2022/01/04 03:50:22;;;;;;;4.00;1.65;;;;;;;4.86;100.00;98713.81;1709438;83;21132;-73
2022/01/04 03:52:48;;;;;;;4.35;1.70;;;;;;;4.83;100.00;98713.02;1709738;82;21041;-69
2022/01/04 03:55:15;;;;;;;2.55;1.60;;;;;;;4.82;100.00;98722.19;1715105;82;21935;-68
2022/01/04 03:57:43;;;;;;;2.37;1.25;;;;;;;4.80;100.00;98723.53;1720524;82;21151;-70
2022/01/04 04:00:10;;;;;;;5.22;1.70;;;;;;;4.81;100.00;98733.08;1719332;82;21189;-69
2022/01/04 04:02:39;;;;;;;3.40;1.72;;;;;;;4.82;100.00;98732.16;1721959;82;21055;-69
2022/01/04 04:05:08;;;;;;;5.97;2.02;;;;;;;4.82;100.00;98725.64;1713560;82;21059;-68
2022/01/04 04:07:36;;;;;;;5.22;1.80;;;;;;;4.84;100.00;98729.05;1715289;82;21098;-70
2022/01/04 04:10:04;;;;;;;5.75;1.52;;;;;;;4.86;100.00;98734.22;1730802;82;21030;-69
2022/01/04 04:12:31;;;;;;;5.40;1.82;;;;;;;4.86;100.00;98735.98;1724191;82;21006;-68
2022/01/04 04:14:58;;;;;;;3.12;1.40;;;;;;;4.87;100.00;98737.67;1725990;83;21052;-69
2022/01/04 04:17:25;;;;;;;7.45;1.62;;;;;;;4.86;100.00;98734.69;1728240;82;21129;-68
2022/01/04 04:19:52;;;;;;;4.83;1.60;;;;;;;4.87;100.00;98748.11;1737558;82;21146;-69
2022/01/04 04:22:18;;;;;;;4.42;1.70;;;;;;;4.86;100.00;98747.72;1725241;82;21109;-68
2022/01/04 04:24:45;;;;;;;6.70;1.82;;;;;;;4.83;100.00;98749.95;1704008;84;21061;-68
2022/01/04 04:27:13;;;;;;;3.55;1.80;;;;;;;4.84;100.00;98749.91;1715659;82;21050;-68
2022/01/04 04:29:40;;;;;;;5.45;1.52;;;;;;;4.82;100.00;98753.03;1733448;82;21053;-69
2022/01/04 04:32:09;;;;;;;7.85;1.60;;;;;;;4.83;100.00;98756.48;1727240;82;21150;-71
2022/01/04 04:34:37;;;;;;;3.77;1.60;;;;;;;4.82;100.00;98763.46;1712512;82;21125;-69
2022/01/04 04:37:04;;;;;;;4.47;1.60;;;;;;;4.81;100.00;98762.23;1711328;82;21074;-69
2022/01/04 04:39:31;;;;;;;5.85;1.50;;;;;;;4.79;100.00;98762.73;1716322;82;21090;-69
2022/01/04 04:41:59;;;;;;;4.90;1.70;;;;;;;4.79;100.00;98758.83;1710389;82;21033;-68
2022/01/04 04:44:25;;;;;;;4.63;1.63;;;;;;;4.78;100.00;98767.53;1705781;82;21133;-68
2022/01/04 04:46:52;;;;;;;4.47;1.52;;;;;;;4.76;100.00;98771.52;1708661;82;21059;-69
2022/01/04 04:49:19;;;;;;;5.50;1.62;;;;;;;4.75;100.00;98768.95;1704375;84;21061;-68
2022/01/04 04:51:46;;;;;;;3.58;1.32;;;;;;;4.71;100.00;98774.72;1709336;82;21510;-69
2022/01/04 04:54:13;;;;;;;5.83;1.90;;;;;;;4.71;100.00;98777.79;1696313;82;21271;-69
2022/01/04 04:56:39;;;;;;;6.47;1.70;;;;;;;4.71;100.00;98782.55;1704357;84;21146;-69
2022/01/04 04:59:08;;;;;;;6.40;1.77;;;;;;;4.69;100.00;98780.44;1730584;82;21426;-71
2022/01/04 05:01:36;;;;;;;3.25;1.40;;;;;;;4.68;100.00;98783.97;1733484;82;21035;-69
2022/01/04 05:04:03;;;;;;;4.72;1.20;;;;;;;4.66;100.00;98781.86;1714974;82;21066;-69
2022/01/04 05:06:30;;;;;;;2.92;1.02;;;;;;;4.66;100.00;98784.92;1712319;82;21029;-68
2022/01/04 05:08:56;;;;;;;7.87;1.80;;;;;;;4.65;100.00;98781.47;1722056;82;21166;-70
2022/01/04 05:11:23;;;;;;;5.22;1.57;;;;;;;4.63;100.00;98785.42;1707808;82;21545;-69
2022/01/04 05:13:51;;;;;;;4.67;1.37;;;;;;;4.65;100.00;98791.03;1706487;82;21394;-70
2022/01/04 05:16:17;;;;;;;3.87;1.50;;;;;;;4.64;100.00;98792.79;1717216;82;21987;-69
2022/01/04 05:18:44;;;;;;;5.97;1.75;;;;;;;4.62;100.00;98791.98;1709671;82;21078;-69
2022/01/04 05:21:11;;;;;;;5.17;1.62;;;;;;;4.63;100.00;98786.73;1710824;82;21155;-71
2022/01/04 05:23:39;;;;;;;6.28;1.77;;;;;;;4.63;100.00;98791.10;1722429;82;21113;-68
2022/01/04 05:26:06;;;;;;;3.85;1.42;;;;;;;4.62;100.00;98788.08;1718329;82;21077;-68
2022/01/04 05:28:33;;;;;;;4.65;1.75;;;;;;;4.62;100.00;98798.51;1719657;82;21069;-70
2022/01/04 05:31:00;;;;;;;3.35;1.60;;;;;;;4.59;100.00;98799.92;1726571;77;21022;-69
2022/01/04 05:33:26;;;;;;;5.60;1.75;;;;;;;4.56;100.00;98803.95;1724975;82;21118;-69
2022/01/04 05:35:53;;;;;;;3.08;1.52;;;;;;;4.51;100.00;98803.23;1723071;82;21048;-69
2022/01/04 05:38:20;;;;;;;3.37;2.08;;;;;;;4.48;100.00;98803.34;1747324;82;21057;-70
2022/01/04 05:40:47;;;;;;;4.72;2.20;;;;;;;4.45;100.00;98812.13;1747656;82;21342;-69
2022/01/04 05:43:14;;;;;;;5.22;2.30;;;;;;;4.44;100.00;98814.77;1729901;82;21744;-69
2022/01/04 05:45:40;;;;;;;4.37;2.10;;;;;;;4.42;100.00;98823.96;1735279;82;22413;-69
2022/01/04 05:48:08;;;;;;;4.03;2.20;;;;;;;4.40;100.00;98816.19;1733017;82;21059;-69
2022/01/04 05:50:38;;;;;;;7.05;2.60;;;;;;;4.39;100.00;98818.83;1731080;82;21133;-70
2022/01/04 05:53:06;;;;;;;5.62;2.65;;;;;;;4.39;100.00;98821.02;1730848;82;21065;-69
2022/01/04 05:55:33;;;;;;;7.35;3.00;;;;;;;4.38;100.00;98829.72;1729698;82;21060;-69
2022/01/04 05:58:00;;;;;;;6.60;3.10;;;;;;;4.37;100.00;98835.84;1724738;82;21591;-70
2022/01/04 06:00:26;;;;;;;6.22;3.50;;;;;;;4.35;100.00;98835.03;1742531;82;21128;-70
2022/01/04 06:02:53;;;;;;;7.65;3.60;;;;;;;4.34;100.00;98834.62;1736984;82;21039;-70
2022/01/04 06:05:20;;;;;;;8.80;3.85;;;;;;;4.31;100.00;98833.42;1718881;82;21058;-70
2022/01/04 06:07:50;;;;;;;9.38;3.90;;;;;;;4.31;100.00;98829.52;1717297;82;21125;-71
2022/01/04 06:10:16;;;;;;;10.23;5.22;;;;;;;4.32;100.00;98839.02;1717594;82;21370;-69
2022/01/04 06:15:14;;;;;;;14.00;6.67;;;;;;;4.43;100.00;98847.81;1717771;83;21610;-70
2022/01/04 06:17:46;;;;;;;8.20;4.83;;;;;;;4.51;100.00;98850.16;1717252;82;21018;-70
2022/01/04 06:20:21;;;;;;;13.03;5.97;;;;;;;4.56;100.00;98846.52;1745799;82;21076;-68
2022/01/04 06:22:51;;;;;;;12.07;5.55;;;;;;;4.60;100.00;98854.64;1718345;82;22310;-70
2022/01/04 06:25:20;;;;;;;11.38;4.90;;;;;;;4.65;100.00;98855.80;1721999;82;21082;-65
2022/01/04 06:27:52;;;;;;;8.78;5.10;;;;;;;4.70;100.00;98858.25;1721571;82;21054;-66
2022/01/04 06:30:21;;;;;;;8.80;4.75;;;;;;;4.68;100.00;98847.86;1729101;82;21582;-67
2022/01/04 06:32:47;;;;;;;16.50;7.12;;;;;;;4.73;100.00;98848.55;1728342;82;21065;-66
2022/01/04 06:35:14;;;;;;;22.70;10.18;;;;;;;4.73;100.00;98856.38;1704696;82;21802;-66
2022/01/04 06:37:41;;;;;;;20.75;10.35;;;;;;;4.75;100.00;98854.57;1716511;82;21750;-66
2022/01/04 06:40:10;;;;;;;98.78;42.27;;;;;;;4.76;100.00;98856.72;1709207;82;21074;-67
2022/01/04 06:42:38;;;;;;;31.85;13.55;;;;;;;4.78;100.00;98862.28;1723607;82;21039;-67
2022/01/04 06:45:07;;;;;;;61.45;25.85;;;;;;;4.81;100.00;98862.20;1717059;82;22138;-67
2022/01/04 06:47:33;;;;;;;117.55;48.40;;;;;;;4.86;100.00;98865.11;1643162;85;21112;-67
2022/01/04 06:50:01;;;;;;;135.78;54.25;;;;;;;4.88;100.00;98864.58;1665537;86;21518;-66
2022/01/04 06:52:28;;;;;;;26.23;11.57;;;;;;;4.91;100.00;98867.09;1668250;84;21073;-66
2022/01/04 06:54:55;;;;;;;20.68;10.03;;;;;;;4.95;100.00;98873.92;1665433;86;21585;-66
2022/01/04 06:57:21;;;;;;;11.05;5.33;;;;;;;4.96;100.00;98867.79;1665595;86;21102;-66
2022/01/04 06:59:49;;;;;;;21.75;10.43;;;;;;;4.99;100.00;98875.50;1666785;84;21885;-66
2022/01/04 07:02:15;;;;;;;14.05;7.42;;;;;;;5.02;100.00;98870.20;1682100;84;21072;-67
2022/01/04 07:04:41;;;;;;;21.40;10.68;;;;;;;5.05;100.00;98877.91;1674044;84;21165;-66
2022/01/04 07:07:08;;;;;;;17.12;7.60;;;;;;;5.09;100.00;98871.69;1665118;84;21093;-67
2022/01/04 07:09:35;;;;;;;13.85;7.67;;;;;;;5.14;100.00;98874.98;1665478;84;21637;-67
2022/01/04 07:12:03;;;;;;;30.32;13.53;;;;;;;5.16;100.00;98881.00;1668580;84;21985;-67
2022/01/04 07:14:31;;;;;;;27.25;11.12;;;;;;;5.15;100.00;98877.97;1665320;84;21041;-66
2022/01/04 07:16:57;;;;;;;22.22;10.75;;;;;;;5.16;100.00;98881.46;1674331;84;22155;-66
2022/01/04 07:19:24;;;;;;;21.90;11.05;;;;;;;5.15;100.00;98882.35;1689830;84;21053;-65
2022/01/04 07:21:52;;;;;;;43.13;19.17;;;;;;;5.13;100.00;98886.34;1677037;83;21129;-67
2022/01/04 07:24:19;;;;;;;62.78;24.72;;;;;;;5.12;100.00;98888.99;1697452;83;21146;-67
2022/01/04 07:26:47;;;;;;;37.88;17.37;;;;;;;5.12;100.00;98887.23;1671765;84;21605;-66
2022/01/04 07:29:15;;;;;;;58.38;26.42;;;;;;;5.14;100.00;98886.73;1670580;84;21068;-67
2022/01/04 07:31:41;;;;;;;33.78;15.93;;;;;;;5.14;100.00;98886.73;1695696;84;21104;-66
2022/01/04 07:34:09;;;;;;;79.42;33.18;;;;;;;5.15;100.00;98889.72;1684088;83;21669;-67
2022/01/04 07:36:36;;;;;;;51.60;21.82;;;;;;;5.15;100.00;98887.11;1678840;84;21716;-67
2022/01/04 07:39:03;;;;;;;56.33;25.77;;;;;;;5.15;100.00;98889.72;1671113;85;21612;-69
2022/01/04 07:41:29;;;;;;;56.23;26.85;;;;;;;5.17;100.00;98890.52;1670774;84;21103;-67
2022/01/04 07:43:55;;;;;;;48.05;21.45;;;;;;;5.23;100.00;98894.23;1651116;86;21101;-68
2022/01/04 07:46:23;;;;;;;44.75;20.35;;;;;;;5.29;100.00;98898.83;1694220;83;21049;-68
2022/01/04 07:48:50;;;;;;;49.18;20.95;;;;;;;5.33;100.00;98895.22;1704385;83;21136;-67
2022/01/04 07:51:19;;;;;;;35.65;16.73;;;;;;;5.38;100.00;98893.28;1702046;83;21004;-67
2022/01/04 07:53:45;;;;;;;22.15;12.37;;;;;;;5.43;100.00;98889.63;1695667;83;21616;-68
2022/01/04 07:56:14;;;;;;;28.85;12.88;;;;;;;5.56;100.00;98897.84;1671019;84;21128;-67
2022/01/04 07:58:42;;;;;;;16.97;8.98;;;;;;;5.82;100.00;98888.19;1670544;85;21081;-67
2022/01/04 08:01:09;;;;;;;27.85;12.40;;;;;;;6.05;100.00;98889.54;1708400;83;21309;-67
2022/01/04 08:03:35;;;;;;;15.95;8.40;;;;;;;6.40;100.00;98889.08;1698879;84;21049;-68
2022/01/04 08:06:04;;;;;;;23.50;9.68;;;;;;;6.85;100.00;98887.63;1708308;83;21112;-68
2022/01/04 08:08:32;;;;;;;51.75;23.32;;;;;;;7.46;100.00;98881.55;1684323;84;21025;-68
2022/01/04 08:11:00;;;;;;;46.50;19.80;;;;;;;8.06;100.00;98884.08;1708219;83;21040;-68
2022/01/04 08:13:29;;;;;;;15.95;8.45;;;;;;;8.39;100.00;98889.95;1699036;84;21154;-68
2022/01/04 08:15:55;;;;;;;54.05;24.10;;;;;;;8.52;100.00;98898.98;1708168;83;21057;-68
2022/01/04 08:18:22;;;;;;;97.12;42.27;;;;;;;8.43;100.00;98902.52;1698554;84;21113;-67
2022/01/04 08:20:55;;;;;;;58.65;26.17;;;;;;;8.32;100.00;98901.20;1685124;83;21036;-68
2022/01/04 08:23:18;;;;;;;93.75;42.85;;;;;;;8.33;100.00;98898.14;1659892;84;21085;-67
2022/01/04 08:25:45;;;;;;;39.83;19.90;;;;;;;8.50;100.00;98903.91;1652424;86;21984;-67
2022/01/04 08:28:12;;;;;;;29.30;14.60;;;;;;;8.73;100.00;98902.80;1677979;84;21116;-67
2022/01/04 08:30:40;;;;;;;42.43;19.30;;;;;;;9.10;100.00;98907.06;1714066;82;21077;-67
2022/01/04 08:33:08;;;;;;;21.50;10.72;;;;;;;9.27;100.00;98905.35;1715105;82;21546;-67
2022/01/04 08:35:36;;;;;;;16.07;8.80;;;;;;;9.37;100.00;98898.24;1708821;82;21625;-68
2022/01/04 08:38:03;;;;;;;16.32;7.85;;;;;;;9.42;100.00;98894.91;1712996;82;21500;-67
2022/01/04 08:40:29;;;;;;;35.92;15.70;;;;;;;9.48;100.00;98898.13;1714650;82;21109;-67
2022/01/04 08:42:56;;;;;;;32.78;14.55;;;;;;;9.41;99.92;98897.16;1712499;82;21057;-66
2022/01/04 08:45:24;;;;;;;16.00;8.35;;;;;;;9.41;100.00;98902.42;1703680;84;21101;-67
2022/01/04 08:47:54;;;;;;;22.35;11.48;;;;;;;9.51;100.00;98901.94;1688464;82;21565;-68
2022/01/04 08:50:22;;;;;;;28.85;12.25;;;;;;;9.51;98.80;98904.56;1706209;82;21902;-68
2022/01/04 08:52:54;;;;;;;59.90;23.05;;;;;;;9.56;98.34;98893.34;1711349;82;21086;-69
2022/01/04 08:55:19;;;;;;;;;;;;;;;9.59;99.18;98895.80;1711842;82;21034;-67
2022/01/04 08:57:47;;;;;;;136.88;56.33;;;;;;;9.69;98.58;98898.81;1722289;82;20167;-69
2022/01/04 09:00:15;;;;;;;60.05;28.75;;;;;;;9.79;98.73;98900.85;1725202;82;21077;-67
2022/01/04 09:02:43;;;;;;;62.53;24.82;;;;;;;9.91;97.61;98891.92;1707997;82;21883;-68
2022/01/04 09:05:11;;;;;;;53.40;22.13;;;;;;;9.95;93.74;98900.04;1723367;82;21070;-68
2022/01/04 09:07:38;;;;;;;90.62;37.13;;;;;;;9.78;93.54;98903.11;1732700;82;21537;-67
2022/01/04 09:10:06;;;;;;;92.02;39.30;;;;;;;9.66;95.00;98905.92;1713542;82;21594;-69
2022/01/04 09:12:48;;;;;;;30.70;13.88;;;;;;;9.61;95.33;98908.39;1709487;81;21109;-67
2022/01/04 09:15:30;;;;;;;11.12;4.60;;;;;;;9.46;91.53;98911.37;1706065;82;21171;-66
2022/01/04 09:20:24;;;;;;;8.65;4.17;;;;;;;9.28;95.35;98910.53;1716805;82;21678;-68
2022/01/04 09:22:53;;;;;;;7.00;3.60;;;;;;;9.27;93.23;98914.55;1712856;82;21013;-68
2022/01/04 09:25:20;;;;;;;8.38;4.05;;;;;;;9.11;91.65;98923.66;1703688;84;21038;-68
2022/01/04 09:27:50;;;;;;;14.87;6.42;;;;;;;8.87;93.34;98934.47;1702830;84;21218;-69
2022/01/04 09:30:17;;;;;;;17.35;8.20;;;;;;;8.63;94.23;98936.95;1703485;84;21093;-66
2022/01/04 09:32:43;;;;;;;12.60;5.65;;;;;;;8.36;94.37;98933.40;1703846;84;21041;-68
2022/01/04 09:35:12;;;;;;;16.67;7.28;;;;;;;8.16;95.25;98936.47;1704131;84;21065;-68
2022/01/04 09:37:39;;;;;;;11.95;5.95;;;;;;;8.01;97.07;98928.48;1704183;84;21518;-68
2022/01/04 09:40:06;;;;;;;18.35;7.58;;;;;;;7.90;99.29;98926.34;1704407;84;21101;-68
2022/01/04 09:42:37;;;;;;;11.08;5.17;;;;;;;7.78;99.32;98926.44;1703874;84;21086;-68
2022/01/04 09:45:05;;;;;;;15.40;6.30;;;;;;;7.62;99.24;98931.50;1705038;84;21340;-68
2022/01/04 09:47:33;;;;;;;10.48;4.40;;;;;;;7.52;100.00;98934.12;1704752;84;20922;-66
2022/01/04 09:49:59;;;;;;;9.15;4.17;;;;;;;7.41;100.00;98932.42;1705292;84;21034;-67
2022/01/04 09:52:26;;;;;;;9.18;4.03;;;;;;;7.28;100.00;98933.42;1709400;82;21121;-66
2022/01/04 09:54:54;;;;;;;7.75;3.83;;;;;;;7.23;100.00;98934.09;1732710;82;21065;-66
2022/01/04 09:57:21;;;;;;;9.53;3.50;;;;;;;7.22;100.00;98941.06;1725979;82;21073;-68
2022/01/04 09:59:49;;;;;;;7.40;4.03;;;;;;;7.18;100.00;98938.20;1710089;82;21066;-69
2022/01/04 10:02:19;;;;;;;9.73;4.45;;;;;;;7.11;100.00;98942.00;1712064;82;21522;-67
2022/01/04 10:04:45;;;;;;;9.38;4.42;;;;;;;7.10;100.00;98938.97;1713228;82;21105;-68
2022/01/04 10:07:12;;;;;;;10.53;4.70;;;;;;;7.07;100.00;98946.97;1712588;82;21002;-69
2022/01/04 10:09:44;;;;;;;13.35;4.33;;;;;;;7.04;100.00;98941.41;1733262;82;21090;-67
2022/01/04 10:12:14;;;;;;;19.55;7.75;;;;;;;7.00;100.00;98946.83;1733195;82;21046;-67
2022/01/04 10:14:43;;;;;;;23.22;8.60;;;;;;;6.94;100.00;98945.30;1733275;82;21695;-66
2022/01/04 10:17:16;;;;;;;;;;;;;;;6.88;100.00;98937.25;1732009;82;21579;-67
2022/01/04 10:19:47;;;;;;;13.40;5.10;;;;;;;6.87;100.00;98939.45;1712701;82;20215;-67
2022/01/04 10:22:24;;;;;;;13.05;5.17;;;;;;;6.85;100.00;98939.13;1733394;82;21252;-66
2022/01/04 10:25:05;;;;;;;13.55;6.03;;;;;;;6.82;100.00;98944.03;1720408;82;21716;-68
2022/01/04 10:27:51;;;;;;;14.53;5.47;;;;;;;6.80;100.00;98936.70;1714479;82;21025;-68
2022/01/04 10:30:32;;;;;;;11.30;5.35;;;;;;;6.79;100.00;98942.02;1728570;82;23306;-65
2022/01/04 10:33:12;;;;;;;10.63;4.55;;;;;;;6.73;100.00;98941.79;1704011;82;21557;-66
2022/01/04 10:35:45;;;;;;;13.08;5.30;;;;;;;6.68;100.00;98942.44;1723763;82;21096;-66
2022/01/04 10:38:24;;;;;;;9.50;4.45;;;;;;;6.62;100.00;98947.91;1730459;82;21094;-66
2022/01/04 10:41:00;;;;;;;14.95;5.85;;;;;;;6.59;100.00;98942.80;1710762;82;21592;-66
2022/01/04 10:43:32;;;;;;;13.13;6.12;;;;;;;6.59;100.00;98949.34;1718449;82;21288;-66
2022/01/04 10:46:00;;;;;;;12.30;4.87;;;;;;;6.61;100.00;98950.14;1658176;85;25773;-67
2022/01/04 10:48:39;;;;;;;9.05;4.50;;;;;;;6.65;100.00;98951.73;1644159;85;21096;-65
2022/01/04 10:51:11;;;;;;;11.18;4.28;;;;;;;6.67;100.00;98957.72;1666356;83;21633;-64
2022/01/04 10:53:54;;;;;;;11.50;4.58;;;;;;;6.67;100.00;98956.41;1629099;87;21139;-65
2022/01/04 10:56:37;;;;;;;14.83;5.60;;;;;;;6.66;100.00;98946.41;1643421;86;21099;-66
2022/01/04 10:59:09;;;;;;;14.40;5.55;;;;;;;6.68;100.00;98945.05;1628265;85;21095;-67
2022/01/04 11:01:43;;;;;;;14.85;5.15;;;;;;;6.63;100.00;98947.86;1651962;85;21135;-66
2022/01/04 11:04:18;;;;;;;19.95;6.15;;;;;;;6.62;100.00;98946.59;1651287;86;21144;-66
2022/01/04 11:06:47;;;;;;;10.38;4.90;;;;;;;6.62;100.00;98946.59;1641467;85;21160;-66
2022/01/04 11:09:14;;;;;;;13.58;5.25;;;;;;;6.60;100.00;98936.22;1633332;87;21177;-66
2022/01/04 11:11:43;;;;;;;11.05;5.25;;;;;;;6.60;100.00;98936.65;1647615;86;21549;-66
2022/01/04 11:14:10;;;;;;;10.35;4.78;;;;;;;6.61;100.00;98935.75;1651852;86;21073;-64
2022/01/04 11:16:39;;;;;;;15.53;5.58;;;;;;;6.62;100.00;98942.20;1651443;86;21096;-66
2022/01/04 11:19:07;;;;;;;12.28;5.17;;;;;;;6.64;100.00;98940.85;1632450;86;21677;-66
2022/01/04 11:21:42;;;;;;;16.12;5.53;;;;;;;6.62;100.00;98937.44;1638888;87;21172;-66
2022/01/04 11:24:16;;;;;;;17.25;5.90;;;;;;;6.60;100.00;98939.27;1662875;84;21070;-65
2022/01/04 11:26:45;;;;;;;14.00;5.58;;;;;;;6.58;100.00;98948.94;1678158;84;21066;-67
2022/01/04 11:29:14;;;;;;;14.60;4.85;;;;;;;6.54;100.00;98946.06;1653025;84;21111;-64
2022/01/04 11:32:01;;;;;;;12.47;5.00;;;;;;;6.50;100.00;98947.47;1647317;86;21131;-66
2022/01/04 11:35:04;;;;;;;12.43;5.72;;;;;;;6.42;98.23;98945.62;1665474;85;21137;-65
2022/01/04 11:37:32;;;;;;;15.98;4.60;;;;;;;6.35;99.88;98960.29;1666293;84;21710;-64
2022/01/04 11:40:24;;;;;;;13.05;5.00;;;;;;;6.34;99.69;98956.83;1660153;85;21554;-65
2022/01/04 11:42:53;;;;;;;13.22;4.58;;;;;;;6.35;99.60;98958.55;1670641;83;21057;-65
2022/01/04 11:45:48;;;;;;;9.80;4.40;;;;;;;6.39;100.00;98960.58;1632910;86;21060;-64